Time;durP1;ratioP1;P1;durP2;ratioP2;P2;SDS_P1;SDS_P2;PMS_P1;PMS_P2;Temp;Humidity;BMP_temperature;BMP_pressure;BME280_temperature;BME280_humidity;BME280_pressure;Samples;Min_cycle;Max_cycle;Signal;HPM_P1;HPM_P2
2024/02/03 00:02:02;;;;;;;75.13;34.05;;;8.30;95.00;;;;;;5043276;28;20093;-51
2024/02/03 00:04:30;;;;;;;266.45;101.57;;;8.30;94.50;;;;;;5041440;28;20041;-53
2024/02/03 00:06:55;;;;;;;261.88;96.93;;;8.30;94.50;;;;;;5041772;28;20444;-53
2024/02/03 00:09:21;;;;;;;25.27;15.45;;;8.30;94.70;;;;;;5043708;28;20052;-51
2024/02/03 00:11:47;;;;;;;19.80;12.73;;;;;;;;;;5041681;28;20033;-54
2024/02/03 00:14:14;;;;;;;18.23;12.65;;;;;;;;;;5040558;28;20026;-52
2024/02/03 00:16:40;;;;;;;22.77;15.88;;;;;;;;;;5045611;28;20138;-51
2024/02/03 00:19:06;;;;;;;18.77;12.98;;;;;;;;;;5052986;28;20029;-54
2024/02/03 00:21:32;;;;;;;17.55;11.27;;;;;;;;;;5036758;28;20370;-51
2024/02/03 00:23:58;;;;;;;15.48;10.15;;;7.30;99.90;;;;;;5033200;28;20026;-52
2024/02/03 00:26:24;;;;;;;20.52;12.30;;;6.80;97.50;;;;;;4998045;28;20033;-55
2024/02/03 00:28:51;;;;;;;19.55;13.57;;;6.50;98.60;;;;;;5030847;28;20503;-54
2024/02/03 00:31:16;;;;;;;34.53;22.65;;;6.50;99.20;;;;;;5032889;28;20065;-54
2024/02/03 00:33:42;;;;;;;24.45;13.00;;;6.30;99.50;;;;;;5032991;28;20131;-52
2024/02/03 00:36:08;;;;;;;14.60;8.77;;;;;;;;;;5032690;28;20037;-53
2024/02/03 00:38:34;;;;;;;15.85;10.77;;;6.00;99.90;;;;;;5030624;28;20080;-52
2024/02/03 00:41:00;;;;;;;17.75;9.93;;;6.00;99.90;;;;;;5032783;28;20029;-52
2024/02/03 00:43:25;;;;;;;15.85;9.77;;;6.10;99.90;;;;;;5030720;28;20099;-53
2024/02/03 00:45:51;;;;;;;16.95;11.05;;;6.10;99.90;;;;;;5032646;28;20030;-52
2024/02/03 00:48:17;;;;;;;14.82;9.18;;;6.10;99.90;;;;;;5032620;28;20136;-52
2024/02/03 00:50:42;;;;;;;14.00;8.15;;;6.10;99.90;;;;;;5030446;28;20069;-52
2024/02/03 00:53:08;;;;;;;13.60;8.95;;;6.00;99.90;;;;;;5032467;28;20115;-53
2024/02/03 00:55:34;;;;;;;14.30;8.40;;;6.10;99.90;;;;;;5046935;28;20071;-53
2024/02/03 00:58:00;;;;;;;16.67;10.43;;;5.40;99.90;;;;;;5032503;28;20563;-54
2024/02/03 01:00:27;;;;;;;15.70;10.02;;;6.00;99.90;;;;;;5032509;28;20034;-54
2024/02/03 01:02:54;;;;;;;14.65;8.82;;;6.10;99.90;;;;;;5030551;28;20440;-53
2024/02/03 01:05:19;;;;;;;13.88;8.60;;;6.10;99.90;;;;;;5032182;28;20089;-54
2024/02/03 01:07:45;;;;;;;10.82;7.28;;;6.00;99.90;;;;;;5032586;28;20036;-54
2024/02/03 01:10:11;;;;;;;14.75;8.88;;;5.70;99.90;;;;;;5032359;28;20029;-52
2024/02/03 01:12:37;;;;;;;11.55;7.45;;;;;;;;;;5032512;28;20036;-51
2024/02/03 01:15:03;;;;;;;15.52;8.95;;;5.60;99.90;;;;;;5031845;28;20034;-55
2024/02/03 01:17:29;;;;;;;15.50;8.40;;;5.60;99.90;;;;;;5030205;28;20068;-52
2024/02/03 01:19:55;;;;;;;18.13;7.93;;;5.50;99.90;;;;;;5032346;28;20465;-54
2024/02/03 01:22:21;;;;;;;13.35;8.43;;;5.30;99.90;;;;;;5030175;28;20060;-53
2024/02/03 01:24:47;;;;;;;13.10;8.18;;;5.30;99.90;;;;;;5031657;28;20499;-53
2024/02/03 01:27:13;;;;;;;15.15;8.63;;;5.30;99.90;;;;;;5031786;28;20112;-53
2024/02/03 01:29:39;;;;;;;10.30;5.45;;;5.50;99.90;;;;;;5032105;28;20026;-53
2024/02/03 01:32:06;;;;;;;10.18;6.15;;;5.40;99.90;;;;;;5030056;28;20037;-52
2024/02/03 01:34:32;;;;;;;11.35;6.60;;;5.40;99.90;;;;;;5032031;28;20052;-52
2024/02/03 01:36:58;;;;;;;13.27;7.28;;;5.50;99.90;;;;;;5032038;28;20473;-53
2024/02/03 01:39:24;;;;;;;15.43;7.95;;;5.60;99.90;;;;;;5046598;28;20046;-52
2024/02/03 01:41:50;;;;;;;13.50;7.95;;;5.70;99.90;;;;;;5032032;28;20173;-52
2024/02/03 01:44:16;;;;;;;12.80;8.00;;;5.80;99.90;;;;;;5031877;28;20036;-52
2024/02/03 01:46:42;;;;;;;12.75;7.63;;;5.80;99.90;;;;;;5045177;28;20029;-52
2024/02/03 01:49:07;;;;;;;15.25;6.78;;;5.80;99.90;;;;;;5051843;28;20047;-54
2024/02/03 01:51:34;;;;;;;11.13;6.75;;;5.70;99.90;;;;;;5051554;28;20399;-54
2024/02/03 01:54:00;;;;;;;10.02;6.50;;;5.70;99.90;;;;;;5016127;28;20045;-53
2024/02/03 01:56:27;;;;;;;11.90;6.95;;;5.80;99.90;;;;;;5051629;28;20087;-52
2024/02/03 01:58:53;;;;;;;14.50;7.43;;;5.90;99.90;;;;;;5066024;28;20087;-54
2024/02/03 02:01:19;;;;;;;13.38;7.40;;;5.90;99.90;;;;;;5049537;28;20037;-53
2024/02/03 02:03:45;;;;;;;14.77;7.40;;;6.10;99.90;;;;;;5049504;28;20116;-52
2024/02/03 02:06:11;;;;;;;11.98;6.75;;;6.10;99.90;;;;;;5066259;28;20033;-54
2024/02/03 02:08:39;;;;;;;9.35;5.68;;;6.10;99.90;;;;;;5051583;28;20025;-53
2024/02/03 02:11:06;;;;;;;12.10;7.28;;;6.00;99.90;;;;;;5051502;28;20029;-54
2024/02/03 02:13:32;;;;;;;10.25;6.85;;;5.90;99.90;;;;;;5066146;28;20065;-53
2024/02/03 02:15:58;;;;;;;14.05;7.43;;;6.00;99.90;;;;;;5049115;28;20049;-53
2024/02/03 02:18:25;;;;;;;14.25;9.52;;;6.10;99.90;;;;;;5049145;28;20385;-53
2024/02/03 02:20:51;;;;;;;13.18;8.85;;;6.10;99.90;;;;;;5049034;28;20037;-54
2024/02/03 02:23:17;;;;;;;13.15;6.95;;;6.30;99.90;;;;;;5032748;28;20044;-53
2024/02/03 02:25:43;;;;;;;11.70;6.68;;;6.30;99.90;;;;;;5049274;28;20033;-53
2024/02/03 02:28:09;;;;;;;8.90;5.30;;;6.30;99.90;;;;;;5049469;28;20037;-53
2024/02/03 02:30:35;;;;;;;10.63;5.15;;;6.20;99.90;;;;;;5016061;28;20071;-54
2024/02/03 02:33:02;;;;;;;7.70;4.97;;;6.10;99.90;;;;;;5049185;28;20037;-53
2024/02/03 02:35:28;;;;;;;12.38;7.90;;;6.00;99.90;;;;;;5049136;28;20041;-54
2024/02/03 02:37:53;;;;;;;10.60;6.82;;;6.00;99.90;;;;;;5052058;28;20086;-54
2024/02/03 02:40:20;;;;;;;12.93;7.88;;;5.90;99.90;;;;;;5041861;28;20030;-52
2024/02/03 02:42:45;;;;;;;10.23;7.30;;;6.00;99.90;;;;;;5034850;28;20060;-53
2024/02/03 02:45:11;;;;;;;12.57;7.43;;;5.90;99.90;;;;;;5052800;28;20029;-52
2024/02/03 02:47:37;;;;;;;21.30;12.68;;;6.00;99.90;;;;;;5054520;28;20041;-53
2024/02/03 02:50:03;;;;;;;16.50;10.07;;;6.00;99.90;;;;;;5055184;28;20036;-52
2024/02/03 02:52:29;;;;;;;12.52;7.82;;;6.10;99.90;;;;;;5052619;28;20106;-54
2024/02/03 02:54:56;;;;;;;14.07;8.65;;;6.00;99.90;;;;;;5054896;28;20025;-54
2024/02/03 02:57:22;;;;;;;10.80;7.28;;;6.20;99.90;;;;;;5054741;28;20392;-53
2024/02/03 02:59:48;;;;;;;9.57;6.78;;;6.10;99.90;;;;;;5052757;28;20049;-53
2024/02/03 03:02:14;;;;;;;11.25;7.78;;;6.00;99.90;;;;;;5052825;28;20095;-54
2024/02/03 03:04:40;;;;;;;13.45;8.23;;;5.90;99.90;;;;;;5052662;28;20099;-53
2024/02/03 03:07:05;;;;;;;16.17;9.07;;;6.00;99.90;;;;;;5052659;28;20040;-54
2024/02/03 03:09:31;;;;;;;14.98;9.23;;;6.20;99.90;;;;;;5040284;28;20029;-54
2024/02/03 03:11:57;;;;;;;11.80;7.65;;;6.40;99.90;;;;;;5034844;28;20064;-52
2024/02/03 03:14:23;;;;;;;24.33;13.98;;;6.40;99.90;;;;;;5034619;28;20030;-53
2024/02/03 03:16:49;;;;;;;18.83;11.45;;;6.80;99.90;;;;;;5034555;28;20037;-53
2024/02/03 03:19:15;;;;;;;16.02;10.15;;;7.10;99.90;;;;;;5049183;28;20049;-53
2024/02/03 03:21:42;;;;;;;20.60;9.73;;;;;;;;;;5034458;28;20033;-53
2024/02/03 03:24:07;;;;;;;18.15;10.10;;;7.50;99.50;;;;;;5034575;28;20029;-52
2024/02/03 03:26:41;;;;;;;20.17;9.30;;;7.60;98.50;;;;;;5034505;28;20529;-52
2024/02/03 03:29:07;;;;;;;14.50;8.75;;;;;;;;;;5034387;28;20116;-54
2024/02/03 03:31:34;;;;;;;17.70;10.00;;;;;;;;;;5034387;28;20041;-52
2024/02/03 03:34:00;;;;;;;17.10;8.55;;;;;;;;;;5034257;28;20032;-52
2024/02/03 03:36:26;;;;;;;10.00;6.93;;;;;;;;;;5034216;28;20034;-55
2024/02/03 03:38:52;;;;;;;10.25;6.35;;;8.20;97.60;;;;;;5034207;28;20082;-54
2024/02/03 03:41:17;;;;;;;16.83;7.38;;;8.30;97.90;;;;;;5031998;28;20388;-54
2024/02/03 03:43:44;;;;;;;23.80;9.68;;;8.30;97.90;;;;;;5034090;28;20025;-53
2024/02/03 03:46:10;;;;;;;48.42;10.98;;;8.30;97.40;;;;;;5034095;28;20056;-52
2024/02/03 03:48:36;;;;;;;37.20;11.68;;;8.40;97.70;;;;;;5031118;28;20041;-52
2024/02/03 03:51:02;;;;;;;27.45;9.98;;;8.40;97.60;;;;;;5033908;28;20029;-53
2024/02/03 03:53:28;;;;;;;27.15;10.68;;;8.40;96.90;;;;;;5033816;28;20061;-53
2024/02/03 03:55:53;;;;;;;17.23;7.47;;;8.40;96.60;;;;;;5033812;28;20040;-52
2024/02/03 03:58:19;;;;;;;22.05;9.55;;;8.10;95.90;;;;;;5033886;28;20025;-52
2024/02/03 04:00:45;;;;;;;13.48;8.40;;;7.90;96.20;;;;;;5031631;28;20049;-54
2024/02/03 04:03:10;;;;;;;17.27;7.78;;;8.00;96.50;;;;;;5031791;28;20033;-52
2024/02/03 04:05:36;;;;;;;13.40;7.35;;;8.10;98.60;;;;;;5031653;28;20041;-52
2024/02/03 04:08:03;;;;;;;14.45;8.77;;;8.20;99.90;;;;;;5047965;28;20068;-53
2024/02/03 04:10:29;;;;;;;10.63;6.28;;;8.20;99.90;;;;;;5033601;28;20044;-52
2024/02/03 04:12:55;;;;;;;10.23;5.25;;;7.40;96.90;;;;;;5014828;28;20397;-54
2024/02/03 04:15:21;;;;;;;11.30;5.63;;;;;;;;;;5031317;28;20714;-54
2024/02/03 04:17:48;;;;;;;9.27;6.30;;;6.90;98.90;;;;;;5033510;28;20362;-54
2024/02/03 04:20:14;;;;;;;9.27;5.80;;;6.80;99.90;;;;;;5033470;28;20056;-53
2024/02/03 04:22:40;;;;;;;8.23;5.40;;;6.80;99.90;;;;;;5033342;28;20061;-51
2024/02/03 04:25:06;;;;;;;8.45;4.53;;;6.80;99.90;;;;;;5047973;28;20469;-53
2024/02/03 04:27:31;;;;;;;6.88;3.88;;;6.90;99.30;;;;;;5031211;28;20034;-52
2024/02/03 04:29:57;;;;;;;9.10;4.75;;;6.80;99.40;;;;;;5033189;28;20580;-52
2024/02/03 04:32:23;;;;;;;10.23;5.63;;;6.90;99.50;;;;;;5033165;28;20029;-54
2024/02/03 04:34:48;;;;;;;10.38;5.75;;;7.00;99.40;;;;;;5014443;28;20083;-54
2024/02/03 04:37:14;;;;;;;9.20;5.70;;;7.30;99.10;;;;;;5033139;28;20034;-54
2024/02/03 04:39:42;;;;;;;6.38;4.65;;;7.60;98.10;;;;;;4997866;28;20037;-53
2024/02/03 04:42:07;;;;;;;8.02;4.78;;;7.60;97.40;;;;;;5032960;28;20099;-55
2024/02/03 04:44:33;;;;;;;7.57;4.85;;;7.50;97.30;;;;;;4997874;28;20125;-54
2024/02/03 04:46:59;;;;;;;7.15;4.65;;;7.50;97.60;;;;;;5032936;28;20029;-54
2024/02/03 04:49:24;;;;;;;6.93;4.60;;;7.40;97.70;;;;;;5030990;28;20048;-54
2024/02/03 04:51:52;;;;;;;7.18;3.60;;;7.40;98.00;;;;;;5037661;28;20060;-51
2024/02/03 04:54:18;;;;;;;8.93;4.47;;;7.10;98.50;;;;;;5045475;28;20032;-53
2024/02/03 04:56:44;;;;;;;7.13;4.25;;;7.00;99.60;;;;;;5067209;28;20052;-53
2024/02/03 04:59:10;;;;;;;7.78;4.07;;;6.90;99.90;;;;;;5050247;28;20044;-53
2024/02/03 05:01:36;;;;;;;6.28;3.65;;;6.80;99.90;;;;;;5052560;28;20381;-54
2024/02/03 05:04:02;;;;;;;7.00;4.32;;;6.90;99.90;;;;;;5052519;28;20112;-51
2024/02/03 05:06:28;;;;;;;4.97;3.50;;;7.10;99.90;;;;;;5052522;28;20029;-52
2024/02/03 05:08:58;;;;;;;7.28;4.03;;;7.10;99.90;;;;;;5050408;28;20047;-52
2024/02/03 05:11:25;;;;;;;5.97;3.97;;;7.40;99.90;;;;;;5052395;28;20072;-54
2024/02/03 05:13:51;;;;;;;7.88;3.92;;;7.30;98.90;;;;;;5036079;28;20473;-52
2024/02/03 05:16:16;;;;;;;5.78;3.72;;;7.40;99.00;;;;;;5032229;28;20043;-51
2024/02/03 05:18:42;;;;;;;5.95;3.33;;;7.40;98.50;;;;;;5032500;28;20116;-53
2024/02/03 05:21:08;;;;;;;5.65;3.33;;;;;;;;;;5030335;28;20056;-54
2024/02/03 05:23:34;;;;;;;9.23;3.08;;;7.20;98.30;;;;;;5030453;28;20029;-52
2024/02/03 05:26:00;;;;;;;4.63;2.50;;;7.30;98.70;;;;;;5013927;28;20472;-53
2024/02/03 05:28:26;;;;;;;5.47;3.90;;;7.40;99.90;;;;;;5031905;28;20036;-54
2024/02/03 05:30:53;;;;;;;92.53;52.13;;;7.40;99.90;;;;;;5032286;28;20473;-52
2024/02/03 05:33:19;;;;;;;16.50;12.27;;;;;;;;;;5032350;28;20040;-52
2024/02/03 05:35:45;;;;;;;4.32;2.97;;;6.90;98.40;;;;;;5032683;28;20041;-52
2024/02/03 05:38:10;;;;;;;7.50;4.57;;;6.90;99.20;;;;;;5032333;28;20393;-54
2024/02/03 05:40:36;;;;;;;7.35;3.65;;;6.90;99.60;;;;;;5032223;28;20040;-55
2024/02/03 05:43:02;;;;;;;10.70;6.05;;;;;;;;;;5032086;28;20065;-53
2024/02/03 05:45:28;;;;;;;7.95;4.20;;;;;;;;;;5032578;28;20052;-52
2024/02/03 05:47:54;;;;;;;8.15;4.35;;;7.10;98.30;;;;;;5032224;28;20044;-52
2024/02/03 05:50:20;;;;;;;12.15;5.78;;;7.10;98.40;;;;;;5032090;28;20405;-54
2024/02/03 05:52:45;;;;;;;18.05;11.05;;;7.20;98.20;;;;;;5032143;28;20147;-54
2024/02/03 05:55:12;;;;;;;24.90;13.50;;;7.40;97.70;;;;;;5032002;28;20469;-53
2024/02/03 05:57:51;;;;;;;9.30;4.97;;;7.40;98.00;;;;;;5013554;28;20042;-52
2024/02/03 06:00:18;;;;;;;11.80;8.05;;;7.40;98.70;;;;;;5033177;28;20469;-53
2024/02/03 06:02:45;;;;;;;18.08;11.88;;;7.40;99.10;;;;;;5066593;28;20037;-53
2024/02/03 06:05:11;;;;;;;15.50;10.45;;;7.90;99.90;;;;;;5051612;28;20029;-52
2024/02/03 06:07:37;;;;;;;18.05;10.27;;;7.80;98.70;;;;;;5051676;28;20028;-52
2024/02/03 06:10:03;;;;;;;11.52;7.72;;;8.00;98.50;;;;;;5049537;28;20118;-54
2024/02/03 06:12:29;;;;;;;14.57;9.15;;;8.10;97.90;;;;;;5033857;28;20485;-54
2024/02/03 06:14:54;;;;;;;14.50;9.38;;;7.80;98.00;;;;;;5035786;28;20091;-52
2024/02/03 06:17:20;;;;;;;11.90;7.85;;;7.80;97.50;;;;;;5035709;28;20469;-52
2024/02/03 06:19:46;;;;;;;8.90;5.63;;;7.70;97.60;;;;;;5035792;28;20030;-54
2024/02/03 06:22:12;;;;;;;6.85;4.43;;;7.60;97.80;;;;;;5040161;28;20048;-52
2024/02/03 06:24:37;;;;;;;12.07;8.25;;;7.70;97.00;;;;;;5066861;28;20033;-53
2024/02/03 06:27:04;;;;;;;23.50;15.27;;;7.70;96.80;;;;;;5048087;28;20041;-54
2024/02/03 06:29:30;;;;;;;17.00;10.77;;;7.80;99.90;;;;;;5053384;28;20041;-55
2024/02/03 06:31:56;;;;;;;18.33;11.10;;;7.60;97.20;;;;;;5047794;28;20124;-53
2024/02/03 06:34:22;;;;;;;106.97;54.13;;;;;;;;;;5035504;28;20025;-53
2024/02/03 06:36:48;;;;;;;33.40;18.85;;;;;;;;;;5035297;28;20083;-58
2024/02/03 06:39:14;;;;;;;17.58;10.50;;;8.10;99.90;;;;;;5033386;28;20034;-54
2024/02/03 06:41:40;;;;;;;16.40;10.45;;;;;;;;;;5035253;28;20388;-54
2024/02/03 06:44:09;;;;;;;22.30;11.75;;;;;;;;;;5049887;28;20046;-52
2024/02/03 06:46:36;;;;;;;35.03;18.50;;;;;;;;;;5035186;28;20064;-55
2024/02/03 06:49:02;;;;;;;55.75;27.55;;;;;;;;;;5042237;28;20469;-53
2024/02/03 06:51:28;;;;;;;63.33;32.65;;;;;;;;;;5035712;28;20057;-55
2024/02/03 06:53:54;;;;;;;56.28;31.88;;;17.60;99.90;;;;;;5042795;28;20045;-55
2024/02/03 06:56:20;;;;;;;59.60;35.50;;;;;;;;;;5042223;28;20087;-52
2024/02/03 06:58:47;;;;;;;61.65;42.00;;;;;;;;;;5043176;28;20037;-52
2024/02/03 07:01:13;;;;;;;70.63;46.58;;;;;;;;;;5040289;28;20469;-52
2024/02/03 07:03:39;;;;;;;60.30;39.35;;;23.60;76.70;;;;;;5043794;28;20029;-52
2024/02/03 07:06:06;;;;;;;58.38;38.80;;;;;;;;;;5043427;28;20108;-52
2024/02/03 07:08:32;;;;;;;77.28;44.75;;;;;;;;;;5014729;28;20045;-52
2024/02/03 07:10:58;;;;;;;101.65;60.50;;;;;;;;;;5039035;28;20025;-53
2024/02/03 07:13:25;;;;;;;94.13;63.65;;;;;;;;;;5054618;28;20032;-50
2024/02/03 07:15:52;;;;;;;113.78;78.13;;;;;;;;;;5054457;28;20044;-50
2024/02/03 07:18:18;;;;;;;126.93;89.85;;;27.30;75.40;;;;;;5054482;28;20057;-49
2024/02/03 07:20:44;;;;;;;118.35;83.38;;;;;;;;;;5038628;28;20473;-52
2024/02/03 07:23:10;;;;;;;95.18;65.30;;;;;;;;;;5043184;28;20029;-50
2024/02/03 07:25:36;;;;;;;73.43;55.20;;;28.10;72.30;;;;;;5043401;28;20070;-52
2024/02/03 07:28:02;;;;;;;50.17;41.42;;;26.80;66.70;;;;;;5037373;28;20128;-51
2024/02/03 07:30:28;;;;;;;49.38;39.10;;;;;;;;;;5040348;28;20045;-51
2024/02/03 07:32:54;;;;;;;50.08;38.28;;;27.20;66.90;;;;;;5030528;28;20083;-54
2024/02/03 07:35:20;;;;;;;45.40;38.13;;;27.90;67.10;;;;;;5041760;28;20428;-50
2024/02/03 07:37:45;;;;;;;45.03;35.75;;;28.50;67.00;;;;;;5045729;28;20033;-54
2024/02/03 07:40:13;;;;;;;33.45;25.13;;;28.10;66.50;;;;;;5036640;28;20029;-52
2024/02/03 07:42:39;;;;;;;26.17;20.45;;;27.10;65.10;;;;;;5038854;28;20120;-51
2024/02/03 07:45:06;;;;;;;23.50;16.45;;;26.10;65.20;;;;;;5032125;28;20112;-52
2024/02/03 07:47:33;;;;;;;21.10;17.77;;;;;;;;;;5041931;28;20045;-52
2024/02/03 07:49:59;;;;;;;28.75;23.65;;;27.70;97.00;;;;;;5041380;28;20366;-51
2024/02/03 07:52:25;;;;;;;36.78;28.70;;;28.10;65.80;;;;;;5034209;28;20111;-52
2024/02/03 07:54:51;;;;;;;39.30;30.30;;;;;;;;;;5033757;28;20021;-51
2024/02/03 07:57:17;;;;;;;48.58;37.65;;;29.50;65.00;;;;;;5048526;28;20041;-50
2024/02/03 07:59:43;;;;;;;55.80;42.50;;;;;;;;;;5031512;28;20060;-52
2024/02/03 08:02:09;;;;;;;37.80;29.38;;;30.30;64.40;;;;;;5031810;28;20044;-51
2024/02/03 08:04:35;;;;;;;48.25;35.50;;;27.90;63.00;;;;;;5014973;28;20042;-50
2024/02/03 08:07:00;;;;;;;44.90;32.97;;;25.00;70.70;;;;;;5033680;28;20037;-51
2024/02/03 08:09:26;;;;;;;54.30;39.35;;;23.70;75.90;;;;;;5061974;28;20048;-53
2024/02/03 08:11:52;;;;;;;57.38;40.90;;;22.50;73.10;;;;;;5053491;28;20029;-50
2024/02/03 08:14:18;;;;;;;62.33;44.45;;;22.40;67.80;;;;;;5051480;28;20043;-51
2024/02/03 08:16:44;;;;;;;58.80;41.55;;;;;;;;;;5053416;28;20388;-53
2024/02/03 08:19:09;;;;;;;47.80;38.85;;;25.70;67.10;;;;;;5050906;28;20515;-49
2024/02/03 08:21:36;;;;;;;48.55;35.33;;;;;;;;;;5037753;28;20045;-50
2024/02/03 08:24:03;;;;;;;48.95;36.35;;;;;;;;;;5030982;28;20606;-51
2024/02/03 08:26:29;;;;;;;54.58;33.80;;;29.00;64.30;;;;;;5030974;28;20072;-50
2024/02/03 08:28:55;;;;;;;49.97;32.20;;;28.50;63.90;;;;;;5030970;28;20083;-50
2024/02/03 08:31:20;;;;;;;47.15;26.42;;;28.70;64.20;;;;;;5036361;28;20033;-50
2024/02/03 08:33:46;;;;;;;34.33;21.90;;;27.80;63.10;;;;;;5034059;28;20041;-53
2024/02/03 08:36:12;;;;;;;26.00;19.85;;;27.50;63.60;;;;;;5050237;28;20267;-54
2024/02/03 08:38:37;;;;;;;46.65;28.98;;;26.20;64.40;;;;;;5050758;28;20025;-50
2024/02/03 08:41:03;;;;;;;79.32;50.60;;;25.80;65.70;;;;;;5050720;28;20043;-50
2024/02/03 08:43:30;;;;;;;25.25;20.80;;;24.90;66.00;;;;;;5032656;28;20037;-49
2024/02/03 08:45:55;;;;;;;42.25;30.30;;;25.90;66.50;;;;;;5030277;28;20117;-50
2024/02/03 08:48:21;;;;;;;38.08;27.05;;;25.90;67.20;;;;;;5030612;28;20120;-50
2024/02/03 08:50:47;;;;;;;22.75;16.20;;;26.10;65.70;;;;;;5030686;28;20032;-50
2024/02/03 08:53:12;;;;;;;27.35;15.40;;;25.10;65.20;;;;;;5031772;28;20056;-49
2024/02/03 08:55:38;;;;;;;36.35;25.27;;;25.10;66.20;;;;;;5035699;28;20397;-50
2024/02/03 08:58:04;;;;;;;17.25;13.20;;;25.10;66.60;;;;;;5034586;28;20025;-52
2024/02/03 09:00:31;;;;;;;15.40;12.32;;;;;;;;;;5040583;28;20029;-53
2024/02/03 09:02:57;;;;;;;18.35;12.73;;;;;;;;;;5052472;28;20029;-49
2024/02/03 09:05:23;;;;;;;14.75;13.13;;;;;;;;;;5052438;28;20466;-49
2024/02/03 09:07:51;;;;;;;12.05;10.63;;;28.60;64.40;;;;;;5052385;28;20033;-51
2024/02/03 09:10:17;;;;;;;24.83;13.07;;;28.50;64.40;;;;;;5050412;28;20098;-51
2024/02/03 09:12:42;;;;;;;20.67;12.18;;;28.90;64.50;;;;;;5052423;28;20021;-52
2024/02/03 09:15:09;;;;;;;41.72;14.82;;;;;;;;;;5052171;28;20029;-53
2024/02/03 09:17:34;;;;;;;15.45;12.25;;;30.00;64.20;;;;;;5013509;28;20051;-49
2024/02/03 09:20:00;;;;;;;15.88;10.95;;;30.10;64.40;;;;;;5032321;28;20029;-51
2024/02/03 09:22:26;;;;;;;16.15;9.68;;;29.50;64.10;;;;;;5032470;28;20030;-48
2024/02/03 09:24:52;;;;;;;17.38;9.27;;;28.60;64.10;;;;;;5032236;28;20034;-52
2024/02/03 09:27:18;;;;;;;26.42;11.48;;;;;;;;;;5031814;28;20041;-52
2024/02/03 09:29:45;;;;;;;12.10;8.07;;;;;;;;;;5031883;28;20108;-51
2024/02/03 09:32:11;;;;;;;6.57;5.35;;;28.20;63.50;;;;;;5032025;28;20033;-52
2024/02/03 09:34:36;;;;;;;10.15;5.93;;;28.10;62.90;;;;;;5035695;28;20116;-52
2024/02/03 09:37:04;;;;;;;10.88;6.57;;;;;;;;;;5029891;28;20414;-51
2024/02/03 09:39:30;;;;;;;10.15;7.55;;;27.70;85.50;;;;;;5032093;28;20034;-53
2024/02/03 09:41:57;;;;;;;11.02;7.28;;;27.70;64.80;;;;;;5050905;28;20040;-51
2024/02/03 09:44:24;;;;;;;13.02;8.75;;;26.60;64.20;;;;;;5054808;28;20045;-49
2024/02/03 09:46:50;;;;;;;14.75;11.07;;;26.40;90.90;;;;;;5049237;28;20029;-53
2024/02/03 09:49:16;;;;;;;10.43;9.30;;;;;;;;;;5037323;28;20586;-53
2024/02/03 09:51:43;;;;;;;17.48;13.65;;;26.50;93.10;;;;;;5056015;28;20071;-57
2024/02/03 09:54:11;;;;;;;16.90;12.45;;;;;;;;;;5045214;28;20032;-52
2024/02/03 09:56:38;;;;;;;13.93;11.60;;;27.00;92.20;;;;;;5031840;28;20053;-55
2024/02/03 09:59:04;;;;;;;10.82;7.30;;;;;;;;;;5049652;28;20037;-54
2024/02/03 10:01:32;;;;;;;6.70;6.03;;;;;;;;;;5034963;28;20485;-53
2024/02/03 10:03:59;;;;;;;7.70;6.30;;;;;;;;;;5034653;28;20056;-53
2024/02/03 10:06:25;;;;;;;7.78;5.82;;;;;;;;;;5035945;28;20022;-52
2024/02/03 10:08:53;;;;;;;11.80;6.95;;;24.10;66.00;;;;;;5035956;28;20087;-53
2024/02/03 10:11:19;;;;;;;8.90;7.65;;;24.90;67.40;;;;;;5035877;28;20037;-53
2024/02/03 10:14:05;;;;;;;9.88;8.90;;;25.40;67.10;;;;;;5035923;28;20025;-52
2024/02/03 10:16:54;;;;;;;8.60;7.22;;;25.20;66.40;;;;;;5035662;28;20091;-54
2024/02/03 10:19:23;;;;;;;8.60;7.00;;;25.00;66.40;;;;;;5053471;28;20068;-52
2024/02/03 10:21:53;;;;;;;8.85;6.97;;;24.20;67.30;;;;;;5053414;28;20132;-50
2024/02/03 10:24:27;;;;;;;10.85;6.18;;;24.20;67.90;;;;;;5053206;28;20140;-52
2024/02/03 10:27:03;;;;;;;9.95;6.55;;;24.60;67.70;;;;;;5053195;28;20488;-52
2024/02/03 10:29:30;;;;;;;8.65;7.53;;;;;;;;;;5053130;28;20067;-55
2024/02/03 10:31:56;;;;;;;37.67;33.63;;;;;;;;;;5053165;28;20112;-52
2024/02/03 10:34:23;;;;;;;9.90;6.32;;;;;;;;;;5060552;28;20028;-51
2024/02/03 10:36:48;;;;;;;11.02;7.97;;;24.50;78.50;;;;;;5073006;28;20052;-51
2024/02/03 10:39:15;;;;;;;7.22;6.30;;;;;;;;;;5056233;28;20032;-52
2024/02/03 10:41:43;;;;;;;8.82;7.28;;;;;;;;;;5072894;28;20043;-53
2024/02/03 10:44:10;;;;;;;5.97;5.38;;;;;;;;;;5072884;28;20045;-51
2024/02/03 10:46:40;;;;;;;9.50;6.22;;;24.20;67.90;;;;;;5073119;28;20436;-51
2024/02/03 10:49:12;;;;;;;6.43;5.55;;;23.90;69.20;;;;;;5072636;28;20078;-51
2024/02/03 10:51:39;;;;;;;6.45;5.85;;;23.90;68.60;;;;;;5064869;28;20037;-52
2024/02/03 10:54:11;;;;;;;7.35;6.32;;;23.90;69.10;;;;;;5056236;28;20037;-53
2024/02/03 10:56:38;;;;;;;;;;;24.30;69.10;;;;;;5059901;28;20052;-50
2024/02/03 10:59:05;;;;;;;7.07;5.60;;;;;;;;;;5068618;28;19908;-53
2024/02/03 11:01:36;;;;;;;8.45;6.28;;;;;;;;;;5054785;28;20106;-53
2024/02/03 11:04:02;;;;;;;8.40;6.43;;;24.30;80.70;;;;;;5054918;28;20048;-53
2024/02/03 11:06:32;;;;;;;6.75;4.75;;;24.30;82.80;;;;;;5054723;28;20479;-54
2024/02/03 11:09:12;;;;;;;6.97;5.45;;;23.40;68.90;;;;;;5054797;28;20066;-52
2024/02/03 11:11:47;;;;;;;14.63;7.50;;;22.60;69.60;;;;;;5054591;28;20036;-55
2024/02/03 11:14:18;;;;;;;14.68;5.53;;;22.20;70.50;;;;;;5054724;28;20049;-54
2024/02/03 11:16:52;;;;;;;5.35;4.22;;;;;;;;;;5054487;28;20037;-53
2024/02/03 11:19:24;;;;;;;4.63;4.00;;;;;;;;;;5045065;28;20053;-53
2024/02/03 11:21:54;;;;;;;11.88;6.18;;;;;;;;;;5042870;28;20491;-54
2024/02/03 11:24:21;;;;;;;14.10;10.68;;;;;;;;;;5064094;28;20045;-56
2024/02/03 11:27:11;;;;;;;13.63;9.55;;;20.90;72.10;;;;;;5033429;28;20120;-52
2024/02/03 11:29:37;;;;;;;23.38;13.50;;;;;;;;;;5033280;28;20124;-56
2024/02/03 11:32:04;;;;;;;12.38;7.47;;;;;;;;;;5052203;28;20119;-54
2024/02/03 11:34:35;;;;;;;27.67;18.40;;;;;;;;;;5051978;28;20614;-55
2024/02/03 11:37:05;;;;;;;15.10;9.80;;;;;;;;;;5052402;28;20048;-57
2024/02/03 11:39:36;;;;;;;6.80;5.30;;;23.20;91.80;;;;;;5051865;28;20120;-53
2024/02/03 11:42:03;;;;;;;11.65;8.43;;;23.30;70.20;;;;;;5051830;28;20485;-51
2024/02/03 11:44:55;;;;;;;12.52;6.70;;;22.30;70.40;;;;;;5035016;28;20136;-52
2024/02/03 11:47:21;;;;;;;15.15;10.13;;;22.90;70.90;;;;;;5051661;28;20037;-52
2024/02/03 11:49:49;;;;;;;16.42;10.80;;;22.80;70.90;;;;;;5051627;28;20595;-52
2024/02/03 11:52:16;;;;;;;16.23;6.38;;;23.20;70.30;;;;;;5051396;28;20076;-52
2024/02/03 11:54:42;;;;;;;9.95;7.57;;;;;;;;;;5051416;28;20407;-50
2024/02/03 11:57:08;;;;;;;13.00;8.60;;;23.90;70.70;;;;;;5051177;28;20059;-52
2024/02/03 11:59:34;;;;;;;5.90;4.95;;;24.10;70.80;;;;;;5051232;28;20039;-53
2024/02/03 12:02:00;;;;;;;7.65;5.30;;;;;;;;;;5050070;28;20115;-52
2024/02/03 12:04:27;;;;;;;8.77;5.13;;;24.80;69.40;;;;;;5031475;28;20038;-52
2024/02/03 12:06:55;;;;;;;6.53;3.85;;;25.00;69.80;;;;;;5031742;28;20041;-53
2024/02/03 12:09:22;;;;;;;6.43;4.82;;;24.40;69.80;;;;;;5032866;28;20030;-50
2024/02/03 12:11:49;;;;;;;6.80;3.38;;;23.80;70.20;;;;;;5031452;28;20033;-52
2024/02/03 12:14:16;;;;;;;5.60;4.40;;;;;;;;;;5033570;28;20076;-50
2024/02/03 12:16:42;;;;;;;6.72;5.88;;;;;;;;;;5033401;28;20084;-53
2024/02/03 12:19:09;;;;;;;10.88;6.05;;;;;;;;;;5033587;28;20112;-52
2024/02/03 12:21:35;;;;;;;5.25;3.15;;;;;;;;;;5033491;28;20034;-54
2024/02/03 12:24:01;;;;;;;5.60;4.28;;;;;;;;;;5031129;28;20037;-53
2024/02/03 12:26:28;;;;;;;6.32;4.50;;;;;;;;;;5038323;28;20083;-54
2024/02/03 12:28:55;;;;;;;7.70;5.03;;;;;;;;;;5032305;28;20036;-55
2024/02/03 12:31:22;;;;;;;7.22;4.78;;;;;;;;;;5043081;28;20021;-53
2024/02/03 12:33:49;;;;;;;6.38;4.00;;;;;;;;;;5042227;28;20017;-57
2024/02/03 12:36:16;;;;;;;4.38;3.20;;;19.80;98.20;;;;;;5039686;28;20510;-58
2024/02/03 12:38:41;;;;;;;5.60;3.33;;;20.20;75.40;;;;;;5037212;28;20038;-52
2024/02/03 12:41:07;;;;;;;7.00;3.72;;;20.80;74.40;;;;;;5043313;28;20041;-53
2024/02/03 12:43:33;;;;;;;5.75;3.70;;;20.60;73.90;;;;;;5032947;28;20112;-53
2024/02/03 12:45:58;;;;;;;7.40;4.10;;;20.70;74.10;;;;;;5033028;28;20037;-53
2024/02/03 12:48:24;;;;;;;7.82;4.38;;;20.70;74.10;;;;;;5027677;28;20037;-51
2024/02/03 12:50:55;;;;;;;10.98;4.95;;;20.90;74.10;;;;;;5014220;28;20116;-53
2024/02/03 12:53:22;;;;;;;10.70;4.75;;;20.90;73.70;;;;;;5032895;28;20049;-52
2024/02/03 12:55:48;;;;;;;16.48;11.02;;;20.30;74.20;;;;;;5013725;28;20041;-52
2024/02/03 12:58:16;;;;;;;12.82;6.90;;;;;;;;;;5013836;28;20054;-51
2024/02/03 13:00:42;;;;;;;6.13;4.00;;;;;;;;;;5030319;28;20033;-50
2024/02/03 13:03:13;;;;;;;9.02;4.35;;;;;;;;;;5030435;28;20149;-52
2024/02/03 13:05:40;;;;;;;4.78;3.75;;;20.10;88.80;;;;;;5030368;28;20115;-50